sensor_id;sensor_type;location;lat;lon;timestamp;P1;durP1;ratioP1;P2;durP2;ratioP2
60076;SDS011;45950;45.208;20.374;2023-11-21T00:02:22;51.67;;;32.40;;
60076;SDS011;45950;45.208;20.374;2023-11-21T00:04:49;45.53;;;29.23;;
60076;SDS011;45950;45.208;20.374;2023-11-21T00:07:15;50.05;;;31.95;;
60076;SDS011;45950;45.208;20.374;2023-11-21T00:09:42;48.50;;;31.83;;
60076;SDS011;45950;45.208;20.374;2023-11-21T00:12:09;52.58;;;33.28;;
60076;SDS011;45950;45.208;20.374;2023-11-21T00:14:35;47.72;;;30.25;;
60076;SDS011;45950;45.208;20.374;2023-11-21T00:17:03;53.58;;;32.15;;
60076;SDS011;45950;45.208;20.374;2023-11-21T00:19:31;52.95;;;31.65;;
60076;SDS011;45950;45.208;20.374;2023-11-21T00:21:58;46.08;;;29.45;;
60076;SDS011;45950;45.208;20.374;2023-11-21T00:24:25;48.47;;;30.40;;
60076;SDS011;45950;45.208;20.374;2023-11-21T00:26:51;46.00;;;30.10;;
60076;SDS011;45950;45.208;20.374;2023-11-21T00:29:18;45.40;;;29.02;;
60076;SDS011;45950;45.208;20.374;2023-11-21T00:31:45;42.63;;;26.50;;
60076;SDS011;45950;45.208;20.374;2023-11-21T00:34:18;40.17;;;25.70;;
60076;SDS011;45950;45.208;20.374;2023-11-21T00:36:47;42.00;;;26.65;;
60076;SDS011;45950;45.208;20.374;2023-11-21T00:39:13;56.30;;;33.90;;
60076;SDS011;45950;45.208;20.374;2023-11-21T00:41:40;52.60;;;32.72;;
60076;SDS011;45950;45.208;20.374;2023-11-21T00:44:07;54.08;;;32.97;;
60076;SDS011;45950;45.208;20.374;2023-11-21T00:46:34;50.88;;;32.47;;
60076;SDS011;45950;45.208;20.374;2023-11-21T00:49:00;48.88;;;28.13;;
60076;SDS011;45950;45.208;20.374;2023-11-21T00:51:29;45.15;;;28.00;;
60076;SDS011;45950;45.208;20.374;2023-11-21T00:53:57;40.95;;;25.75;;
60076;SDS011;45950;45.208;20.374;2023-11-21T00:56:24;40.30;;;27.13;;
60076;SDS011;45950;45.208;20.374;2023-11-21T00:58:50;37.38;;;24.50;;
60076;SDS011;45950;45.208;20.374;2023-11-21T01:01:17;38.40;;;25.05;;
60076;SDS011;45950;45.208;20.374;2023-11-21T01:03:44;41.10;;;24.70;;
60076;SDS011;45950;45.208;20.374;2023-11-21T01:06:12;42.35;;;25.23;;
60076;SDS011;45950;45.208;20.374;2023-11-21T01:08:38;42.00;;;25.92;;
60076;SDS011;45950;45.208;20.374;2023-11-21T01:11:06;42.58;;;26.58;;
60076;SDS011;45950;45.208;20.374;2023-11-21T01:13:33;46.17;;;28.38;;
60076;SDS011;45950;45.208;20.374;2023-11-21T01:16:00;41.53;;;25.80;;
60076;SDS011;45950;45.208;20.374;2023-11-21T01:18:27;41.08;;;27.00;;
60076;SDS011;45950;45.208;20.374;2023-11-21T01:20:54;43.17;;;27.23;;
60076;SDS011;45950;45.208;20.374;2023-11-21T01:23:21;38.30;;;25.95;;
60076;SDS011;45950;45.208;20.374;2023-11-21T01:25:48;42.72;;;26.00;;
60076;SDS011;45950;45.208;20.374;2023-11-21T01:28:16;43.22;;;25.23;;
60076;SDS011;45950;45.208;20.374;2023-11-21T01:30:42;42.17;;;25.83;;
60076;SDS011;45950;45.208;20.374;2023-11-21T01:33:09;40.55;;;27.75;;
60076;SDS011;45950;45.208;20.374;2023-11-21T01:35:36;46.97;;;29.58;;
60076;SDS011;45950;45.208;20.374;2023-11-21T01:38:03;45.08;;;28.70;;
60076;SDS011;45950;45.208;20.374;2023-11-21T01:40:30;44.42;;;28.55;;
60076;SDS011;45950;45.208;20.374;2023-11-21T01:42:56;41.33;;;27.35;;
60076;SDS011;45950;45.208;20.374;2023-11-21T01:45:25;47.28;;;31.60;;
60076;SDS011;45950;45.208;20.374;2023-11-21T01:47:51;43.88;;;28.83;;
60076;SDS011;45950;45.208;20.374;2023-11-21T01:50:18;41.72;;;27.35;;
60076;SDS011;45950;45.208;20.374;2023-11-21T01:52:47;47.95;;;30.38;;
60076;SDS011;45950;45.208;20.374;2023-11-21T01:55:14;43.65;;;28.73;;
60076;SDS011;45950;45.208;20.374;2023-11-21T01:57:43;45.15;;;29.52;;
60076;SDS011;45950;45.208;20.374;2023-11-21T02:00:10;45.08;;;27.52;;
60076;SDS011;45950;45.208;20.374;2023-11-21T02:02:43;44.90;;;28.80;;
60076;SDS011;45950;45.208;20.374;2023-11-21T02:05:10;44.47;;;28.55;;
60076;SDS011;45950;45.208;20.374;2023-11-21T02:07:37;44.13;;;29.02;;
60076;SDS011;45950;45.208;20.374;2023-11-21T02:10:05;50.20;;;29.00;;
60076;SDS011;45950;45.208;20.374;2023-11-21T02:12:32;46.33;;;28.65;;
60076;SDS011;45950;45.208;20.374;2023-11-21T02:14:58;52.13;;;33.30;;
60076;SDS011;45950;45.208;20.374;2023-11-21T02:17:25;46.88;;;29.40;;
60076;SDS011;45950;45.208;20.374;2023-11-21T02:19:54;47.25;;;29.55;;
60076;SDS011;45950;45.208;20.374;2023-11-21T02:22:22;49.40;;;30.92;;
60076;SDS011;45950;45.208;20.374;2023-11-21T02:24:52;53.60;;;30.92;;
60076;SDS011;45950;45.208;20.374;2023-11-21T02:27:19;43.58;;;27.27;;
60076;SDS011;45950;45.208;20.374;2023-11-21T02:29:48;40.80;;;25.52;;
60076;SDS011;45950;45.208;20.374;2023-11-21T02:32:15;39.95;;;25.50;;
60076;SDS011;45950;45.208;20.374;2023-11-21T02:34:44;41.05;;;24.42;;
60076;SDS011;45950;45.208;20.374;2023-11-21T02:37:10;40.67;;;24.33;;
60076;SDS011;45950;45.208;20.374;2023-11-21T02:39:37;40.35;;;26.00;;
60076;SDS011;45950;45.208;20.374;2023-11-21T02:42:05;41.17;;;25.85;;
60076;SDS011;45950;45.208;20.374;2023-11-21T02:44:31;39.50;;;25.75;;
60076;SDS011;45950;45.208;20.374;2023-11-21T02:46:58;39.35;;;25.50;;
60076;SDS011;45950;45.208;20.374;2023-11-21T02:49:25;40.03;;;25.70;;
60076;SDS011;45950;45.208;20.374;2023-11-21T02:51:53;37.13;;;24.25;;
60076;SDS011;45950;45.208;20.374;2023-11-21T02:54:20;38.47;;;23.98;;
60076;SDS011;45950;45.208;20.374;2023-11-21T02:56:47;41.10;;;26.65;;
60076;SDS011;45950;45.208;20.374;2023-11-21T02:59:20;42.25;;;26.80;;
60076;SDS011;45950;45.208;20.374;2023-11-21T03:01:47;40.53;;;26.48;;
60076;SDS011;45950;45.208;20.374;2023-11-21T03:04:15;46.85;;;27.20;;
60076;SDS011;45950;45.208;20.374;2023-11-21T03:06:52;40.63;;;24.52;;
60076;SDS011;45950;45.208;20.374;2023-11-21T03:09:18;37.28;;;24.50;;
60076;SDS011;45950;45.208;20.374;2023-11-21T03:11:46;40.95;;;26.83;;
60076;SDS011;45950;45.208;20.374;2023-11-21T03:14:16;43.20;;;28.33;;
60076;SDS011;45950;45.208;20.374;2023-11-21T03:16:44;42.13;;;25.80;;
60076;SDS011;45950;45.208;20.374;2023-11-21T03:19:25;35.97;;;24.33;;
60076;SDS011;45950;45.208;20.374;2023-11-21T03:21:51;39.78;;;24.17;;
60076;SDS011;45950;45.208;20.374;2023-11-21T03:24:18;36.97;;;22.83;;
60076;SDS011;45950;45.208;20.374;2023-11-21T03:26:45;36.55;;;24.17;;
60076;SDS011;45950;45.208;20.374;2023-11-21T03:29:12;34.30;;;21.98;;
60076;SDS011;45950;45.208;20.374;2023-11-21T03:31:39;34.33;;;23.15;;
60076;SDS011;45950;45.208;20.374;2023-11-21T03:34:09;32.95;;;22.35;;
60076;SDS011;45950;45.208;20.374;2023-11-21T03:36:36;38.38;;;23.83;;
60076;SDS011;45950;45.208;20.374;2023-11-21T03:39:03;35.97;;;23.45;;
60076;SDS011;45950;45.208;20.374;2023-11-21T03:41:30;38.25;;;24.23;;
60076;SDS011;45950;45.208;20.374;2023-11-21T03:43:57;38.08;;;24.17;;
60076;SDS011;45950;45.208;20.374;2023-11-21T03:46:23;40.10;;;26.20;;
60076;SDS011;45950;45.208;20.374;2023-11-21T03:48:50;37.95;;;24.05;;
60076;SDS011;45950;45.208;20.374;2023-11-21T03:51:18;39.95;;;24.80;;
60076;SDS011;45950;45.208;20.374;2023-11-21T03:53:44;46.63;;;29.42;;
60076;SDS011;45950;45.208;20.374;2023-11-21T03:56:11;48.60;;;29.27;;
60076;SDS011;45950;45.208;20.374;2023-11-21T03:58:38;44.13;;;27.73;;
60076;SDS011;45950;45.208;20.374;2023-11-21T04:01:04;45.25;;;26.80;;
60076;SDS011;45950;45.208;20.374;2023-11-21T04:03:31;37.60;;;22.58;;
60076;SDS011;45950;45.208;20.374;2023-11-21T04:05:57;36.10;;;22.95;;
60076;SDS011;45950;45.208;20.374;2023-11-21T04:08:26;39.97;;;25.92;;
60076;SDS011;45950;45.208;20.374;2023-11-21T04:10:54;46.10;;;30.52;;
60076;SDS011;45950;45.208;20.374;2023-11-21T04:13:21;48.90;;;32.78;;
60076;SDS011;45950;45.208;20.374;2023-11-21T04:15:47;53.80;;;34.65;;
60076;SDS011;45950;45.208;20.374;2023-11-21T04:18:24;38.85;;;26.17;;
60076;SDS011;45950;45.208;20.374;2023-11-21T04:20:50;34.08;;;22.58;;
60076;SDS011;45950;45.208;20.374;2023-11-21T04:23:17;33.70;;;22.40;;
60076;SDS011;45950;45.208;20.374;2023-11-21T04:25:45;31.55;;;20.23;;
60076;SDS011;45950;45.208;20.374;2023-11-21T04:28:11;34.60;;;20.58;;
60076;SDS011;45950;45.208;20.374;2023-11-21T04:30:38;32.97;;;21.27;;
60076;SDS011;45950;45.208;20.374;2023-11-21T04:33:05;30.52;;;20.30;;
60076;SDS011;45950;45.208;20.374;2023-11-21T04:35:32;30.85;;;19.10;;
60076;SDS011;45950;45.208;20.374;2023-11-21T04:37:59;33.70;;;20.52;;
60076;SDS011;45950;45.208;20.374;2023-11-21T04:40:25;28.80;;;18.73;;
60076;SDS011;45950;45.208;20.374;2023-11-21T04:42:54;28.55;;;19.52;;
60076;SDS011;45950;45.208;20.374;2023-11-21T04:45:22;35.03;;;20.85;;
60076;SDS011;45950;45.208;20.374;2023-11-21T04:47:48;32.47;;;20.77;;
60076;SDS011;45950;45.208;20.374;2023-11-21T04:50:15;48.78;;;20.60;;
60076;SDS011;45950;45.208;20.374;2023-11-21T04:52:42;46.53;;;23.10;;
60076;SDS011;45950;45.208;20.374;2023-11-21T04:55:08;35.72;;;23.45;;
60076;SDS011;45950;45.208;20.374;2023-11-21T04:57:35;35.30;;;22.88;;
60076;SDS011;45950;45.208;20.374;2023-11-21T05:00:04;37.13;;;22.00;;
60076;SDS011;45950;45.208;20.374;2023-11-21T05:02:31;42.05;;;24.63;;
60076;SDS011;45950;45.208;20.374;2023-11-21T05:04:59;38.47;;;23.75;;
60076;SDS011;45950;45.208;20.374;2023-11-21T05:07:25;42.13;;;24.35;;
60076;SDS011;45950;45.208;20.374;2023-11-21T05:09:53;34.35;;;20.63;;
60076;SDS011;45950;45.208;20.374;2023-11-21T05:12:21;39.88;;;21.65;;
60076;SDS011;45950;45.208;20.374;2023-11-21T05:14:48;48.53;;;26.92;;
60076;SDS011;45950;45.208;20.374;2023-11-21T05:17:16;49.92;;;27.27;;
60076;SDS011;45950;45.208;20.374;2023-11-21T05:19:43;54.92;;;29.13;;
60076;SDS011;45950;45.208;20.374;2023-11-21T05:22:10;62.42;;;31.85;;
60076;SDS011;45950;45.208;20.374;2023-11-21T05:24:37;57.22;;;30.52;;
60076;SDS011;45950;45.208;20.374;2023-11-21T05:27:04;56.42;;;30.65;;
60076;SDS011;45950;45.208;20.374;2023-11-21T05:29:31;50.30;;;29.67;;
60076;SDS011;45950;45.208;20.374;2023-11-21T05:31:58;57.55;;;32.80;;
60076;SDS011;45950;45.208;20.374;2023-11-21T05:34:26;53.38;;;29.70;;
60076;SDS011;45950;45.208;20.374;2023-11-21T05:36:52;55.10;;;30.50;;
60076;SDS011;45950;45.208;20.374;2023-11-21T05:39:19;47.65;;;26.27;;
60076;SDS011;45950;45.208;20.374;2023-11-21T05:41:46;43.53;;;26.17;;
60076;SDS011;45950;45.208;20.374;2023-11-21T05:44:14;41.85;;;25.27;;
60076;SDS011;45950;45.208;20.374;2023-11-21T05:46:41;38.53;;;22.17;;
60076;SDS011;45950;45.208;20.374;2023-11-21T05:49:11;37.35;;;23.17;;
60076;SDS011;45950;45.208;20.374;2023-11-21T05:51:39;36.55;;;23.73;;
60076;SDS011;45950;45.208;20.374;2023-11-21T05:54:06;35.15;;;22.13;;
60076;SDS011;45950;45.208;20.374;2023-11-21T05:56:33;44.22;;;26.98;;
60076;SDS011;45950;45.208;20.374;2023-11-21T05:58:59;45.90;;;27.23;;
60076;SDS011;45950;45.208;20.374;2023-11-21T06:01:27;47.25;;;28.58;;
60076;SDS011;45950;45.208;20.374;2023-11-21T06:03:53;45.65;;;29.95;;
60076;SDS011;45950;45.208;20.374;2023-11-21T06:06:20;50.92;;;30.67;;
60076;SDS011;45950;45.208;20.374;2023-11-21T06:08:51;53.22;;;31.25;;
60076;SDS011;45950;45.208;20.374;2023-11-21T06:11:17;51.80;;;32.42;;
60076;SDS011;45950;45.208;20.374;2023-11-21T06:13:44;66.00;;;39.20;;
60076;SDS011;45950;45.208;20.374;2023-11-21T06:16:10;58.00;;;35.45;;
60076;SDS011;45950;45.208;20.374;2023-11-21T06:18:41;65.80;;;39.25;;
60076;SDS011;45950;45.208;20.374;2023-11-21T06:21:09;67.88;;;35.28;;
60076;SDS011;45950;45.208;20.374;2023-11-21T06:23:35;62.20;;;35.28;;
60076;SDS011;45950;45.208;20.374;2023-11-21T06:26:04;58.10;;;31.40;;
60076;SDS011;45950;45.208;20.374;2023-11-21T06:28:31;54.65;;;31.77;;
60076;SDS011;45950;45.208;20.374;2023-11-21T06:30:58;58.35;;;30.00;;
60076;SDS011;45950;45.208;20.374;2023-11-21T06:33:30;52.78;;;26.52;;
60076;SDS011;45950;45.208;20.374;2023-11-21T06:35:56;43.40;;;25.50;;
60076;SDS011;45950;45.208;20.374;2023-11-21T06:38:23;41.13;;;23.75;;
60076;SDS011;45950;45.208;20.374;2023-11-21T06:40:49;39.45;;;22.65;;
60076;SDS011;45950;45.208;20.374;2023-11-21T06:43:17;35.08;;;22.15;;
60076;SDS011;45950;45.208;20.374;2023-11-21T06:45:44;33.15;;;20.30;;
60076;SDS011;45950;45.208;20.374;2023-11-21T06:48:10;33.28;;;20.33;;
60076;SDS011;45950;45.208;20.374;2023-11-21T06:50:37;27.42;;;17.83;;
60076;SDS011;45950;45.208;20.374;2023-11-21T06:53:04;30.38;;;18.95;;
60076;SDS011;45950;45.208;20.374;2023-11-21T06:55:32;32.40;;;19.00;;
60076;SDS011;45950;45.208;20.374;2023-11-21T06:57:59;37.13;;;20.92;;
60076;SDS011;45950;45.208;20.374;2023-11-21T07:00:27;33.03;;;19.90;;
60076;SDS011;45950;45.208;20.374;2023-11-21T07:02:54;42.67;;;23.45;;
60076;SDS011;45950;45.208;20.374;2023-11-21T07:05:21;37.05;;;22.85;;
60076;SDS011;45950;45.208;20.374;2023-11-21T07:07:48;40.55;;;24.45;;
60076;SDS011;45950;45.208;20.374;2023-11-21T07:10:15;38.58;;;22.05;;
60076;SDS011;45950;45.208;20.374;2023-11-21T07:12:42;32.17;;;21.13;;
60076;SDS011;45950;45.208;20.374;2023-11-21T07:15:08;31.77;;;20.70;;
60076;SDS011;45950;45.208;20.374;2023-11-21T07:17:36;35.88;;;22.92;;
60076;SDS011;45950;45.208;20.374;2023-11-21T07:20:03;38.50;;;23.10;;
60076;SDS011;45950;45.208;20.374;2023-11-21T07:22:31;34.63;;;20.65;;
60076;SDS011;45950;45.208;20.374;2023-11-21T07:24:58;33.40;;;18.45;;
60076;SDS011;45950;45.208;20.374;2023-11-21T07:27:25;26.88;;;16.58;;
60076;SDS011;45950;45.208;20.374;2023-11-21T07:29:51;28.63;;;17.33;;
60076;SDS011;45950;45.208;20.374;2023-11-21T07:32:18;29.85;;;17.08;;
60076;SDS011;45950;45.208;20.374;2023-11-21T07:34:46;31.67;;;19.20;;
60076;SDS011;45950;45.208;20.374;2023-11-21T07:37:12;27.48;;;17.30;;
60076;SDS011;45950;45.208;20.374;2023-11-21T07:39:39;31.70;;;18.92;;
60076;SDS011;45950;45.208;20.374;2023-11-21T07:42:07;25.00;;;15.13;;
60076;SDS011;45950;45.208;20.374;2023-11-21T07:44:32;23.52;;;14.98;;
60076;SDS011;45950;45.208;20.374;2023-11-21T07:46:59;20.38;;;13.10;;
60076;SDS011;45950;45.208;20.374;2023-11-21T07:49:25;23.73;;;14.35;;
60076;SDS011;45950;45.208;20.374;2023-11-21T07:51:53;19.85;;;12.88;;
60076;SDS011;45950;45.208;20.374;2023-11-21T07:54:21;22.65;;;12.70;;
60076;SDS011;45950;45.208;20.374;2023-11-21T07:56:47;22.05;;;13.02;;
60076;SDS011;45950;45.208;20.374;2023-11-21T07:59:19;25.30;;;15.35;;
60076;SDS011;45950;45.208;20.374;2023-11-21T08:01:46;26.35;;;16.15;;
60076;SDS011;45950;45.208;20.374;2023-11-21T08:04:12;23.48;;;15.27;;
60076;SDS011;45950;45.208;20.374;2023-11-21T08:06:51;32.58;;;18.38;;
60076;SDS011;45950;45.208;20.374;2023-11-21T08:09:19;32.38;;;19.25;;
60076;SDS011;45950;45.208;20.374;2023-11-21T08:11:55;30.20;;;18.42;;
60076;SDS011;45950;45.208;20.374;2023-11-21T08:14:21;35.78;;;20.38;;
60076;SDS011;45950;45.208;20.374;2023-11-21T08:16:51;30.85;;;19.05;;
60076;SDS011;45950;45.208;20.374;2023-11-21T08:19:22;31.60;;;19.20;;
60076;SDS011;45950;45.208;20.374;2023-11-21T08:21:50;32.20;;;18.00;;
60076;SDS011;45950;45.208;20.374;2023-11-21T08:24:16;25.85;;;15.68;;
60076;SDS011;45950;45.208;20.374;2023-11-21T08:26:44;22.08;;;14.45;;
60076;SDS011;45950;45.208;20.374;2023-11-21T08:29:11;17.08;;;12.00;;
60076;SDS011;45950;45.208;20.374;2023-11-21T08:31:56;16.77;;;10.52;;
60076;SDS011;45950;45.208;20.374;2023-11-21T08:34:22;17.13;;;12.27;;
60076;SDS011;45950;45.208;20.374;2023-11-21T08:37:03;17.60;;;11.43;;
60076;SDS011;45950;45.208;20.374;2023-11-21T08:39:30;17.23;;;11.93;;
60076;SDS011;45950;45.208;20.374;2023-11-21T08:41:59;20.67;;;12.23;;
60076;SDS011;45950;45.208;20.374;2023-11-21T08:44:25;20.95;;;11.93;;
60076;SDS011;45950;45.208;20.374;2023-11-21T08:46:52;16.85;;;11.48;;
60076;SDS011;45950;45.208;20.374;2023-11-21T08:49:18;21.52;;;12.57;;
60076;SDS011;45950;45.208;20.374;2023-11-21T08:51:46;15.73;;;9.73;;
60076;SDS011;45950;45.208;20.374;2023-11-21T08:54:12;14.73;;;9.73;;
60076;SDS011;45950;45.208;20.374;2023-11-21T08:56:39;15.60;;;10.45;;
60076;SDS011;45950;45.208;20.374;2023-11-21T08:59:07;14.52;;;9.82;;
60076;SDS011;45950;45.208;20.374;2023-11-21T09:01:34;13.75;;;9.27;;
60076;SDS011;45950;45.208;20.374;2023-11-21T09:04:00;15.00;;;9.82;;
60076;SDS011;45950;45.208;20.374;2023-11-21T09:06:27;18.55;;;11.10;;
60076;SDS011;45950;45.208;20.374;2023-11-21T09:08:54;15.70;;;10.60;;
60076;SDS011;45950;45.208;20.374;2023-11-21T09:11:20;17.27;;;11.82;;
60076;SDS011;45950;45.208;20.374;2023-11-21T09:13:47;18.38;;;10.30;;
60076;SDS011;45950;45.208;20.374;2023-11-21T09:16:15;16.00;;;9.90;;
60076;SDS011;45950;45.208;20.374;2023-11-21T09:18:42;18.27;;;10.30;;
60076;SDS011;45950;45.208;20.374;2023-11-21T09:21:08;15.63;;;11.00;;
60076;SDS011;45950;45.208;20.374;2023-11-21T09:23:35;15.63;;;10.15;;
60076;SDS011;45950;45.208;20.374;2023-11-21T09:26:02;22.02;;;12.43;;
60076;SDS011;45950;45.208;20.374;2023-11-21T09:28:30;21.15;;;12.40;;
60076;SDS011;45950;45.208;20.374;2023-11-21T09:30:57;19.27;;;11.82;;
60076;SDS011;45950;45.208;20.374;2023-11-21T09:33:25;18.45;;;10.93;;
60076;SDS011;45950;45.208;20.374;2023-11-21T09:35:51;17.42;;;10.68;;
60076;SDS011;45950;45.208;20.374;2023-11-21T09:38:18;24.05;;;13.50;;
60076;SDS011;45950;45.208;20.374;2023-11-21T09:40:44;20.30;;;12.57;;
60076;SDS011;45950;45.208;20.374;2023-11-21T09:43:14;21.00;;;12.93;;
60076;SDS011;45950;45.208;20.374;2023-11-21T09:45:43;19.60;;;12.35;;
60076;SDS011;45950;45.208;20.374;2023-11-21T09:48:11;18.33;;;10.70;;
60076;SDS011;45950;45.208;20.374;2023-11-21T09:50:39;17.27;;;10.23;;
60076;SDS011;45950;45.208;20.374;2023-11-21T09:53:09;16.45;;;10.95;;
60076;SDS011;45950;45.208;20.374;2023-11-21T09:55:40;15.18;;;10.57;;
60076;SDS011;45950;45.208;20.374;2023-11-21T09:58:09;16.90;;;10.60;;
60076;SDS011;45950;45.208;20.374;2023-11-21T10:00:38;17.95;;;11.18;;
60076;SDS011;45950;45.208;20.374;2023-11-21T10:03:07;16.95;;;10.13;;
60076;SDS011;45950;45.208;20.374;2023-11-21T10:05:34;16.35;;;10.15;;
60076;SDS011;45950;45.208;20.374;2023-11-21T10:08:01;16.38;;;11.05;;
60076;SDS011;45950;45.208;20.374;2023-11-21T10:10:31;15.60;;;10.82;;
60076;SDS011;45950;45.208;20.374;2023-11-21T10:13:00;16.02;;;10.30;;
60076;SDS011;45950;45.208;20.374;2023-11-21T10:15:28;12.55;;;9.50;;
60076;SDS011;45950;45.208;20.374;2023-11-21T10:17:56;14.95;;;9.13;;
60076;SDS011;45950;45.208;20.374;2023-11-21T10:20:22;14.10;;;9.38;;
60076;SDS011;45950;45.208;20.374;2023-11-21T10:22:49;16.70;;;11.07;;
60076;SDS011;45950;45.208;20.374;2023-11-21T10:25:27;13.13;;;9.70;;
60076;SDS011;45950;45.208;20.374;2023-11-21T10:27:57;22.10;;;10.10;;
60076;SDS011;45950;45.208;20.374;2023-11-21T10:30:27;15.02;;;9.52;;
60076;SDS011;45950;45.208;20.374;2023-11-21T10:32:56;14.73;;;9.60;;
60076;SDS011;45950;45.208;20.374;2023-11-21T10:35:24;15.13;;;9.23;;
60076;SDS011;45950;45.208;20.374;2023-11-21T10:37:59;16.80;;;11.15;;
60076;SDS011;45950;45.208;20.374;2023-11-21T10:42:53;20.38;;;11.68;;
60076;SDS011;45950;45.208;20.374;2023-11-21T10:45:23;24.17;;;13.02;;
60076;SDS011;45950;45.208;20.374;2023-11-21T10:47:51;17.48;;;10.93;;
60076;SDS011;45950;45.208;20.374;2023-11-21T10:50:18;13.90;;;9.23;;
60076;SDS011;45950;45.208;20.374;2023-11-21T10:52:45;18.33;;;9.82;;
60076;SDS011;45950;45.208;20.374;2023-11-21T10:55:16;18.20;;;9.35;;
60076;SDS011;45950;45.208;20.374;2023-11-21T10:57:42;16.80;;;9.63;;
60076;SDS011;45950;45.208;20.374;2023-11-21T11:00:12;15.23;;;9.50;;
60076;SDS011;45950;45.208;20.374;2023-11-21T11:02:39;13.55;;;8.48;;
60076;SDS011;45950;45.208;20.374;2023-11-21T11:05:06;15.57;;;9.50;;
60076;SDS011;45950;45.208;20.374;2023-11-21T11:07:36;14.30;;;9.55;;
60076;SDS011;45950;45.208;20.374;2023-11-21T11:10:05;20.17;;;11.90;;
60076;SDS011;45950;45.208;20.374;2023-11-21T11:12:33;13.35;;;8.65;;
60076;SDS011;45950;45.208;20.374;2023-11-21T11:15:01;14.40;;;9.48;;
60076;SDS011;45950;45.208;20.374;2023-11-21T11:17:31;16.98;;;10.27;;
60076;SDS011;45950;45.208;20.374;2023-11-21T11:19:58;14.40;;;9.95;;
60076;SDS011;45950;45.208;20.374;2023-11-21T11:22:29;16.17;;;10.93;;
60076;SDS011;45950;45.208;20.374;2023-11-21T11:25:03;16.02;;;10.70;;
60076;SDS011;45950;45.208;20.374;2023-11-21T11:27:40;16.15;;;10.90;;
60076;SDS011;45950;45.208;20.374;2023-11-21T11:30:19;16.30;;;10.77;;
60076;SDS011;45950;45.208;20.374;2023-11-21T11:32:51;22.15;;;11.40;;
60076;SDS011;45950;45.208;20.374;2023-11-21T11:35:23;17.10;;;11.27;;
60076;SDS011;45950;45.208;20.374;2023-11-21T11:37:51;22.00;;;13.88;;
60076;SDS011;45950;45.208;20.374;2023-11-21T11:40:17;22.38;;;13.32;;
60076;SDS011;45950;45.208;20.374;2023-11-21T11:42:55;20.55;;;12.40;;
60076;SDS011;45950;45.208;20.374;2023-11-21T11:45:22;16.48;;;10.13;;
60076;SDS011;45950;45.208;20.374;2023-11-21T11:47:56;16.88;;;10.27;;
60076;SDS011;45950;45.208;20.374;2023-11-21T11:50:22;17.17;;;10.65;;
60076;SDS011;45950;45.208;20.374;2023-11-21T11:52:51;15.15;;;8.90;;
60076;SDS011;45950;45.208;20.374;2023-11-21T11:55:20;14.18;;;9.63;;
60076;SDS011;45950;45.208;20.374;2023-11-21T11:57:47;15.13;;;9.30;;
60076;SDS011;45950;45.208;20.374;2023-11-21T12:00:16;15.10;;;9.80;;
60076;SDS011;45950;45.208;20.374;2023-11-21T12:02:44;14.27;;;10.38;;
60076;SDS011;45950;45.208;20.374;2023-11-21T12:05:12;14.40;;;9.85;;
60076;SDS011;45950;45.208;20.374;2023-11-21T12:07:43;14.05;;;9.77;;
60076;SDS011;45950;45.208;20.374;2023-11-21T12:10:11;19.40;;;12.48;;
60076;SDS011;45950;45.208;20.374;2023-11-21T12:12:42;15.45;;;10.55;;
60076;SDS011;45950;45.208;20.374;2023-11-21T12:15:09;17.27;;;10.70;;
60076;SDS011;45950;45.208;20.374;2023-11-21T12:17:35;16.98;;;9.95;;
60076;SDS011;45950;45.208;20.374;2023-11-21T12:20:02;16.70;;;11.38;;
60076;SDS011;45950;45.208;20.374;2023-11-21T12:22:32;16.63;;;10.52;;
60076;SDS011;45950;45.208;20.374;2023-11-21T12:24:59;18.58;;;10.48;;
60076;SDS011;45950;45.208;20.374;2023-11-21T12:27:27;15.15;;;8.75;;
60076;SDS011;45950;45.208;20.374;2023-11-21T12:29:54;14.48;;;8.98;;
60076;SDS011;45950;45.208;20.374;2023-11-21T12:32:21;16.10;;;9.32;;
60076;SDS011;45950;45.208;20.374;2023-11-21T12:34:47;18.55;;;9.50;;
60076;SDS011;45950;45.208;20.374;2023-11-21T12:37:14;19.15;;;10.90;;
60076;SDS011;45950;45.208;20.374;2023-11-21T12:39:43;24.08;;;12.50;;
60076;SDS011;45950;45.208;20.374;2023-11-21T12:42:10;20.25;;;11.90;;
60076;SDS011;45950;45.208;20.374;2023-11-21T12:44:45;20.13;;;12.60;;
60076;SDS011;45950;45.208;20.374;2023-11-21T12:47:16;23.02;;;13.55;;
60076;SDS011;45950;45.208;20.374;2023-11-21T12:49:43;24.40;;;13.27;;
60076;SDS011;45950;45.208;20.374;2023-11-21T12:52:10;24.33;;;14.52;;
60076;SDS011;45950;45.208;20.374;2023-11-21T12:54:38;23.67;;;15.18;;
60076;SDS011;45950;45.208;20.374;2023-11-21T12:57:06;29.63;;;17.25;;
60076;SDS011;45950;45.208;20.374;2023-11-21T12:59:33;33.03;;;19.88;;
60076;SDS011;45950;45.208;20.374;2023-11-21T13:02:00;35.72;;;20.20;;
60076;SDS011;45950;45.208;20.374;2023-11-21T13:04:31;36.15;;;20.00;;
60076;SDS011;45950;45.208;20.374;2023-11-21T13:07:02;31.02;;;17.77;;
60076;SDS011;45950;45.208;20.374;2023-11-21T13:09:31;30.50;;;17.27;;
60076;SDS011;45950;45.208;20.374;2023-11-21T13:12:01;24.10;;;16.13;;
60076;SDS011;45950;45.208;20.374;2023-11-21T13:14:31;27.65;;;16.27;;
60076;SDS011;45950;45.208;20.374;2023-11-21T13:16:58;26.33;;;15.25;;
60076;SDS011;45950;45.208;20.374;2023-11-21T13:19:25;24.58;;;15.02;;
60076;SDS011;45950;45.208;20.374;2023-11-21T13:21:52;31.63;;;17.88;;
60076;SDS011;45950;45.208;20.374;2023-11-21T13:24:19;24.75;;;16.55;;
60076;SDS011;45950;45.208;20.374;2023-11-21T13:26:50;21.27;;;15.00;;
60076;SDS011;45950;45.208;20.374;2023-11-21T13:29:16;18.58;;;13.35;;
60076;SDS011;45950;45.208;20.374;2023-11-21T13:31:44;20.25;;;13.18;;
60076;SDS011;45950;45.208;20.374;2023-11-21T13:34:11;17.95;;;11.70;;
60076;SDS011;45950;45.208;20.374;2023-11-21T13:36:40;17.83;;;12.20;;
60076;SDS011;45950;45.208;20.374;2023-11-21T13:39:07;19.77;;;13.68;;
60076;SDS011;45950;45.208;20.374;2023-11-21T13:41:40;18.17;;;12.23;;
60076;SDS011;45950;45.208;20.374;2023-11-21T13:44:07;20.55;;;13.57;;
60076;SDS011;45950;45.208;20.374;2023-11-21T13:46:41;20.73;;;15.10;;
60076;SDS011;45950;45.208;20.374;2023-11-21T13:49:09;37.38;;;23.33;;
60076;SDS011;45950;45.208;20.374;2023-11-21T13:51:36;36.90;;;22.70;;
60076;SDS011;45950;45.208;20.374;2023-11-21T13:54:06;29.05;;;18.85;;
60076;SDS011;45950;45.208;20.374;2023-11-21T13:56:48;28.45;;;19.27;;
60076;SDS011;45950;45.208;20.374;2023-11-21T13:59:15;32.35;;;21.02;;
60076;SDS011;45950;45.208;20.374;2023-11-21T14:01:46;26.30;;;17.27;;
60076;SDS011;45950;45.208;20.374;2023-11-21T14:04:26;29.80;;;18.27;;
60076;SDS011;45950;45.208;20.374;2023-11-21T14:07:12;29.35;;;19.33;;
60076;SDS011;45950;45.208;20.374;2023-11-21T14:09:47;34.60;;;21.38;;
60076;SDS011;45950;45.208;20.374;2023-11-21T14:12:14;44.05;;;26.77;;
60076;SDS011;45950;45.208;20.374;2023-11-21T14:14:41;69.07;;;40.55;;
60076;SDS011;45950;45.208;20.374;2023-11-21T14:17:09;58.83;;;34.30;;
60076;SDS011;45950;45.208;20.374;2023-11-21T14:19:37;47.75;;;31.33;;